Time;durP1;ratioP1;P1;durP2;ratioP2;P2;SDS_P1;SDS_P2;PMS_P1;PMS_P2;Temp;Humidity;BMP_temperature;BMP_pressure;BME280_temperature;BME280_humidity;BME280_pressure;Samples;Min_cycle;Max_cycle;Signal;HPM_P1;HPM_P2
2022/05/20 00:00:45;;;;;;;6.62;1.80;;;22.00;99.90;;;;;;1914469;74;21132;-87
2022/05/20 00:03:39;;;;;;;7.58;2.30;;;21.90;99.90;;;;;;1910463;74;21582;-86
2022/05/20 00:06:30;;;;;;;8.28;2.60;;;21.90;99.90;;;;;;1905112;74;21101;-79
2022/05/20 00:09:22;;;;;;;5.10;2.10;;;21.90;99.90;;;;;;1904444;74;21055;-79
2022/05/20 00:12:14;;;;;;;5.00;2.22;;;21.80;99.90;;;;;;1904764;74;21054;-79
2022/05/20 00:15:08;;;;;;;6.20;2.00;;;21.80;99.90;;;;;;1925042;74;21047;-79
2022/05/20 00:18:00;;;;;;;5.83;2.10;;;21.70;99.90;;;;;;1893800;76;21153;-79
2022/05/20 00:20:52;;;;;;;3.12;1.90;;;21.60;99.90;;;;;;1915802;74;21051;-80
2022/05/20 00:23:44;;;;;;;7.25;2.10;;;21.60;99.90;;;;;;1895330;75;21626;-79
2022/05/20 00:26:35;;;;;;;8.23;2.12;;;21.60;99.90;;;;;;1872215;77;21154;-79
2022/05/20 00:29:27;;;;;;;5.87;2.12;;;21.60;99.90;;;;;;1885872;75;21094;-79
2022/05/20 00:32:19;;;;;;;6.40;1.98;;;21.50;99.90;;;;;;1872472;75;21099;-79
2022/05/20 00:35:11;;;;;;;9.00;2.58;;;21.50;99.90;;;;;;1888328;73;21098;-79
2022/05/20 00:38:02;;;;;;;6.92;2.00;;;21.50;99.90;;;;;;1906090;75;21105;-79
2022/05/20 00:40:57;;;;;;;5.87;1.95;;;21.40;99.90;;;;;;1901143;75;21044;-79
2022/05/20 00:43:51;;;;;;;4.62;2.00;;;21.40;99.90;;;;;;1897049;75;21172;-79
2022/05/20 00:46:43;;;;;;;5.83;2.00;;;21.40;99.90;;;;;;1912270;75;21115;-79
2022/05/20 00:49:36;;;;;;;4.85;1.82;;;21.40;99.90;;;;;;1882810;75;21188;-79
2022/05/20 00:52:30;;;;;;;4.80;1.80;;;21.30;99.90;;;;;;1885745;75;21102;-79
2022/05/20 00:55:24;;;;;;;8.23;1.85;;;21.30;99.90;;;;;;1886573;75;21626;-79
2022/05/20 00:58:19;;;;;;;6.08;1.92;;;21.20;99.90;;;;;;1882626;75;21048;-79
2022/05/20 01:01:10;;;;;;;5.37;1.80;;;21.20;99.90;;;;;;1893956;75;21143;-79
2022/05/20 01:04:02;;;;;;;5.05;1.82;;;21.10;99.90;;;;;;1903937;75;21055;-79
2022/05/20 01:06:55;;;;;;;7.67;2.25;;;21.10;99.90;;;;;;1887793;75;21062;-79
2022/05/20 01:09:47;;;;;;;7.67;2.30;;;21.10;99.90;;;;;;1883368;75;21044;-79
2022/05/20 01:12:39;;;;;;;8.35;2.05;;;21.10;99.90;;;;;;1905982;75;21122;-79
2022/05/20 01:15:31;;;;;;;6.65;1.90;;;20.90;99.90;;;;;;1873750;75;21123;-79
2022/05/20 01:18:24;;;;;;;5.42;2.15;;;20.90;99.90;;;;;;1886300;74;21617;-79
2022/05/20 01:21:17;;;;;;;6.03;2.05;;;20.90;99.90;;;;;;1897334;75;21063;-79
2022/05/20 01:24:10;;;;;;;6.90;2.05;;;20.90;99.90;;;;;;1894982;75;21177;-79
2022/05/20 01:27:01;;;;;;;4.47;2.00;;;20.80;99.90;;;;;;1894990;75;21067;-79
2022/05/20 01:29:52;;;;;;;6.00;2.35;;;20.80;99.90;;;;;;1896648;75;21098;-79
2022/05/20 01:32:44;;;;;;;5.22;1.72;;;20.80;99.90;;;;;;1898150;75;21110;-79
2022/05/20 01:35:38;;;;;;;5.12;2.17;;;20.80;99.90;;;;;;1884053;75;21113;-79
2022/05/20 01:38:31;;;;;;;5.50;2.00;;;20.80;99.90;;;;;;1905871;75;21129;-79
2022/05/20 01:41:26;;;;;;;7.15;2.30;;;20.80;99.90;;;;;;1906227;75;21539;-79
2022/05/20 01:44:20;;;;;;;5.97;2.20;;;20.70;99.90;;;;;;1884159;76;21157;-79
2022/05/20 01:47:14;;;;;;;3.45;1.67;;;20.70;99.90;;;;;;1897034;75;21171;-79
2022/05/20 01:50:09;;;;;;;5.30;1.92;;;20.60;99.90;;;;;;1894845;75;21503;-79
2022/05/20 01:53:04;;;;;;;7.75;2.25;;;20.60;99.90;;;;;;1894893;75;21067;-79
2022/05/20 01:55:58;;;;;;;6.83;1.92;;;20.50;99.90;;;;;;1895562;75;21526;-79
2022/05/20 01:58:54;;;;;;;4.55;2.17;;;20.40;99.90;;;;;;1900858;75;21395;-79
2022/05/20 02:01:48;;;;;;;4.67;1.87;;;20.40;99.90;;;;;;1883914;76;21066;-79
2022/05/20 02:04:43;;;;;;;7.95;1.98;;;20.40;99.90;;;;;;1891823;75;21092;-79
2022/05/20 02:10:21;;;;;;;6.03;2.00;;;20.50;99.90;;;;;;1954747;72;22141;-78
2022/05/20 02:13:33;;;;;;;6.10;2.25;;;20.50;99.90;;;;;;1902944;75;21104;-79
2022/05/20 02:16:45;;;;;;;4.45;1.90;;;20.50;99.90;;;;;;1902441;75;21115;-79
2022/05/20 02:19:40;;;;;;;3.67;1.60;;;20.40;99.90;;;;;;1897973;75;21109;-79
2022/05/20 02:22:53;;;;;;;6.12;2.40;;;20.40;99.90;;;;;;1897514;75;21055;-78
2022/05/20 02:25:48;;;;;;;6.03;1.90;;;20.40;99.90;;;;;;1895802;75;21162;-79
2022/05/20 02:28:42;;;;;;;7.03;2.00;;;20.30;99.90;;;;;;1895792;75;21110;-79
2022/05/20 02:31:37;;;;;;;5.72;2.15;;;20.30;99.90;;;;;;1906083;75;21117;-79
2022/05/20 02:34:32;;;;;;;7.60;2.10;;;20.30;99.90;;;;;;1917899;75;21193;-78
2022/05/20 02:37:26;;;;;;;6.87;2.92;;;20.30;99.90;;;;;;1884903;75;21115;-79
2022/05/20 02:40:20;;;;;;;6.55;2.70;;;20.20;99.90;;;;;;1892390;75;21059;-79
2022/05/20 02:43:11;;;;;;;6.25;3.10;;;20.10;99.90;;;;;;1895396;75;21109;-79
2022/05/20 02:46:03;;;;;;;6.42;3.10;;;20.00;99.90;;;;;;1917807;75;21574;-79
2022/05/20 02:48:55;;;;;;;6.00;2.50;;;20.00;99.90;;;;;;1903228;75;21074;-78
2022/05/20 02:51:47;;;;;;;5.40;2.70;;;20.10;99.90;;;;;;1907127;75;21058;-78
2022/05/20 02:54:39;;;;;;;7.12;2.98;;;20.00;99.90;;;;;;1906936;75;21072;-79
2022/05/20 02:57:30;;;;;;;3.47;2.60;;;20.00;99.90;;;;;;1905835;75;21054;-79
2022/05/20 03:06:47;;;;;;;8.98;3.30;;;19.90;99.90;;;;;;1903614;75;21066;-78
2022/05/20 03:09:38;;;;;;;8.78;2.58;;;19.80;99.90;;;;;;1902544;75;21099;-79
2022/05/20 03:12:30;;;;;;;5.72;2.80;;;19.70;99.90;;;;;;1911125;75;21094;-79
2022/05/20 03:15:21;;;;;;;4.58;2.25;;;19.60;99.90;;;;;;1897125;75;21051;-79
2022/05/20 03:18:14;;;;;;;5.42;2.40;;;19.50;99.90;;;;;;1900751;75;21108;-79
2022/05/20 03:21:06;;;;;;;4.58;2.50;;;19.40;99.90;;;;;;1895719;75;21120;-79
2022/05/20 03:23:59;;;;;;;6.42;2.30;;;19.40;99.90;;;;;;1898773;75;21053;-79
2022/05/20 03:26:51;;;;;;;6.35;2.27;;;19.40;99.90;;;;;;1885265;75;21087;-79
2022/05/20 03:29:42;;;;;;;10.68;2.60;;;19.40;99.90;;;;;;1904944;75;21176;-78
2022/05/20 03:32:34;;;;;;;7.35;2.40;;;19.40;99.90;;;;;;1896712;75;21560;-79
2022/05/20 03:35:25;;;;;;;4.40;2.20;;;19.30;99.90;;;;;;1894982;75;21526;-79
2022/05/20 03:38:17;;;;;;;4.40;2.50;;;19.40;99.90;;;;;;1882882;75;21186;-79
2022/05/20 03:41:10;;;;;;;5.97;3.02;;;19.40;99.90;;;;;;1886297;75;21242;-79
2022/05/20 03:44:02;;;;;;;5.92;3.12;;;19.40;99.90;;;;;;1886071;75;21490;-79
2022/05/20 03:46:56;;;;;;;5.05;3.10;;;19.40;99.90;;;;;;1916694;75;21083;-79
2022/05/20 03:49:47;;;;;;;5.65;2.65;;;19.50;99.90;;;;;;1894765;75;21134;-79
2022/05/20 03:52:40;;;;;;;5.12;2.30;;;19.60;99.90;;;;;;1896250;75;21103;-79
2022/05/20 03:55:32;;;;;;;7.95;2.60;;;19.60;99.90;;;;;;1888171;75;21117;-79
2022/05/20 03:58:23;;;;;;;7.55;3.20;;;19.40;99.90;;;;;;1895015;75;21064;-79
2022/05/20 04:04:26;;;;;;;6.70;3.00;;;19.40;99.90;;;;;;1894719;75;21135;-79
2022/05/20 04:07:20;;;;;;;4.53;2.70;;;19.40;99.90;;;;;;1916969;75;21110;-79
2022/05/20 04:10:12;;;;;;;5.12;2.75;;;19.30;99.90;;;;;;1903800;74;21159;-79
2022/05/20 04:13:05;;;;;;;3.95;2.77;;;19.40;99.90;;;;;;1911767;74;21087;-78
2022/05/20 04:15:56;;;;;;;4.55;2.67;;;19.30;99.90;;;;;;1911058;74;21111;-79
2022/05/20 04:18:48;;;;;;;5.70;2.80;;;19.30;99.90;;;;;;1909454;74;21066;-79
2022/05/20 04:21:41;;;;;;;4.35;2.55;;;19.20;99.90;;;;;;1913694;74;21564;-79
2022/05/20 04:24:33;;;;;;;8.78;2.80;;;19.20;99.90;;;;;;1913529;74;21063;-79
2022/05/20 04:27:24;;;;;;;5.25;2.65;;;19.20;99.90;;;;;;1902502;74;21132;-78
2022/05/20 04:30:16;;;;;;;4.37;2.67;;;19.30;99.90;;;;;;1919414;74;21106;-79
2022/05/20 04:35:50;;;;;;;5.30;2.58;;;19.30;99.90;;;;;;1955631;72;22219;-79
2022/05/20 04:39:00;;;;;;;6.22;2.72;;;19.30;99.90;;;;;;1895856;75;21059;-80
2022/05/20 04:48:50;;;;;;;4.75;2.70;;;19.60;99.90;;;;;;1898135;75;21542;-79
2022/05/20 04:51:42;;;;;;;8.33;3.00;;;19.60;99.90;;;;;;1895241;75;21161;-79
2022/05/20 04:54:52;;;;;;;5.83;2.67;;;19.70;99.90;;;;;;1895429;75;21074;-79
2022/05/20 05:00:31;;;;;;;7.00;2.80;;;19.80;99.90;;;;;;1958498;72;22181;-82
2022/05/20 05:03:41;;;;;;;7.00;2.80;;;19.70;99.90;;;;;;1901222;75;21106;-80
2022/05/20 05:06:52;;;;;;;8.73;2.62;;;19.60;99.90;;;;;;1917437;75;21039;-80
2022/05/20 05:09:45;;;;;;;5.28;2.37;;;19.50;99.90;;;;;;1906248;75;21090;-80
2022/05/20 05:12:55;;;;;;;9.00;2.90;;;19.50;99.90;;;;;;1907712;73;21158;-79
2022/05/20 05:15:46;;;;;;;9.08;2.52;;;19.40;99.90;;;;;;1899538;75;21053;-79
2022/05/20 05:18:37;;;;;;;8.05;2.17;;;19.30;99.90;;;;;;1884606;75;21094;-80
2022/05/20 05:21:29;;;;;;;4.67;2.25;;;19.20;99.90;;;;;;1900347;75;21054;-80
2022/05/20 05:24:20;;;;;;;6.35;2.42;;;19.20;99.90;;;;;;1894998;75;21617;-81
2022/05/20 05:27:12;;;;;;;7.67;2.70;;;19.30;99.90;;;;;;1896327;73;21068;-80
2022/05/20 05:30:04;;;;;;;6.08;2.40;;;19.20;99.90;;;;;;1898876;75;21095;-80
2022/05/20 05:32:55;;;;;;;5.05;2.35;;;19.20;99.90;;;;;;1905596;75;21154;-80
2022/05/20 05:35:47;;;;;;;7.10;2.75;;;19.10;99.90;;;;;;1894763;75;21091;-80
2022/05/20 05:38:38;;;;;;;8.00;2.83;;;19.00;99.90;;;;;;1893611;75;21113;-80
2022/05/20 05:41:30;;;;;;;7.90;2.85;;;19.00;99.90;;;;;;1901647;75;21068;-80
2022/05/20 05:44:22;;;;;;;6.15;2.55;;;19.10;99.90;;;;;;1891375;73;21153;-79
2022/05/20 05:47:13;;;;;;;4.78;2.58;;;19.10;99.90;;;;;;1893513;75;21101;-80
2022/05/20 05:50:07;;;;;;;12.10;3.27;;;19.20;99.90;;;;;;1898202;75;21057;-80
2022/05/20 05:52:59;;;;;;;8.58;3.17;;;19.20;99.90;;;;;;1897193;75;21227;-79
2022/05/20 05:55:56;;;;;;;7.33;2.87;;;19.30;99.90;;;;;;1890996;75;21137;-79
2022/05/20 05:58:47;;;;;;;6.53;2.92;;;19.20;99.90;;;;;;1895519;73;21151;-79
2022/05/20 06:01:38;;;;;;;10.13;2.30;;;19.20;99.90;;;;;;1905655;75;21113;-79
2022/05/20 06:04:30;;;;;;;5.95;2.65;;;19.20;99.90;;;;;;1906757;75;21178;-79
2022/05/20 06:07:23;;;;;;;5.65;2.42;;;19.20;99.90;;;;;;1905875;75;21171;-79
2022/05/20 06:10:15;;;;;;;8.98;2.55;;;19.20;99.90;;;;;;1894952;75;21283;-79
2022/05/20 06:13:07;;;;;;;7.83;2.70;;;19.30;99.90;;;;;;1898296;73;21136;-79
2022/05/20 06:15:59;;;;;;;7.87;2.47;;;19.40;99.90;;;;;;1907875;75;21112;-79
2022/05/20 06:18:51;;;;;;;6.33;2.10;;;19.50;99.90;;;;;;1903147;75;21217;-79
2022/05/20 06:21:44;;;;;;;5.30;2.65;;;19.70;99.90;;;;;;1903049;75;21612;-79
2022/05/20 06:24:37;;;;;;;7.85;2.55;;;19.80;99.90;;;;;;1896534;75;21300;-79
2022/05/20 06:27:28;;;;;;;6.92;2.55;;;19.90;99.90;;;;;;1900100;73;21055;-80
2022/05/20 06:33:07;;;;;;;7.62;3.47;;;20.20;99.90;;;;;;1920760;72;28070;-77
2022/05/20 06:39:50;;;;;;;9.40;3.17;;;20.50;99.90;;;;;;1891927;75;21065;-78
2022/05/20 06:42:42;;;;;;;7.03;2.70;;;20.50;99.90;;;;;;1896133;73;21170;-75
2022/05/20 06:45:56;;;;;;;11.25;3.30;;;20.50;99.90;;;;;;1897821;75;21145;-82
2022/05/20 06:48:53;;;;;;;7.37;2.20;;;20.60;99.90;;;;;;1900688;75;21171;-83
2022/05/20 06:51:45;;;;;;;8.15;2.50;;;20.50;99.90;;;;;;1898680;75;21059;-82
2022/05/20 06:54:37;;;;;;;7.55;2.65;;;20.60;99.90;;;;;;1890120;75;21114;-82
2022/05/20 06:57:29;;;;;;;14.10;2.85;;;20.60;99.90;;;;;;1896359;73;21177;-83
2022/05/20 07:00:24;;;;;;;8.63;2.83;;;20.60;99.90;;;;;;1907533;75;21161;-84
2022/05/20 07:03:19;;;;;;;14.07;3.25;;;20.50;99.90;;;;;;1901028;75;21133;-83
2022/05/20 07:06:11;;;;;;;8.33;2.95;;;20.60;99.90;;;;;;1891694;75;21602;-82
2022/05/20 07:09:05;;;;;;;8.90;2.52;;;20.60;99.90;;;;;;1901266;75;21133;-82
2022/05/20 07:11:57;;;;;;;8.08;2.98;;;20.70;99.90;;;;;;1903945;75;21214;-82
2022/05/20 07:14:50;;;;;;;5.42;2.55;;;20.80;99.90;;;;;;1906109;75;21040;-83
2022/05/20 07:17:41;;;;;;;10.00;2.60;;;20.90;99.90;;;;;;1895413;75;21579;-82
2022/05/20 07:20:33;;;;;;;10.58;2.72;;;21.00;99.90;;;;;;1891864;75;21100;-82
2022/05/20 07:23:28;;;;;;;7.67;2.45;;;21.10;99.90;;;;;;1893172;75;21495;-83
2022/05/20 07:26:22;;;;;;;5.00;2.22;;;21.30;99.90;;;;;;1899949;75;21093;-82
2022/05/20 07:29:15;;;;;;;8.58;2.50;;;21.50;99.90;;;;;;1888912;75;21111;-82
2022/05/20 07:32:09;;;;;;;6.05;2.22;;;21.50;99.90;;;;;;1903252;75;21198;-82
2022/05/20 07:35:00;;;;;;;8.13;2.25;;;21.60;99.90;;;;;;1873047;75;21217;-82
2022/05/20 07:40:38;;;;;;;10.08;2.98;;;21.90;99.90;;;;;;1938040;72;28102;-81
2022/05/20 07:43:50;;;;;;;7.10;2.40;;;22.10;99.90;;;;;;1883834;73;21132;-81
2022/05/20 07:47:00;;;;;;;8.35;2.35;;;22.30;99.90;;;;;;1911713;75;21119;-81
2022/05/20 07:49:55;;;;;;;6.00;2.17;;;22.30;99.90;;;;;;1899673;75;21439;-81
2022/05/20 07:53:29;;;;;;;7.25;2.10;;;22.30;99.90;;;;;;1906768;75;21076;-81
2022/05/20 07:56:19;;;;;;;8.50;2.90;;;22.40;99.90;;;;;;1910843;75;21092;-81
2022/05/20 07:59:14;;;;;;;4.85;2.12;;;22.50;99.90;;;;;;1852266;75;21150;-81
2022/05/20 08:02:07;;;;;;;4.40;1.80;;;22.60;99.90;;;;;;1901254;75;21102;-83
2022/05/20 08:05:01;;;;;;;9.20;2.22;;;22.70;99.90;;;;;;1905555;75;21215;-81
2022/05/20 08:07:55;;;;;;;8.63;2.72;;;22.80;99.90;;;;;;1906805;75;21140;-81
2022/05/20 08:10:48;;;;;;;7.85;2.08;;;23.00;99.90;;;;;;1906770;75;21047;-81
2022/05/20 08:13:39;;;;;;;4.95;2.10;;;23.10;99.90;;;;;;1884694;73;21141;-81
2022/05/20 08:16:31;;;;;;;7.28;2.20;;;23.30;99.90;;;;;;1898612;75;21131;-81
2022/05/20 08:19:23;;;;;;;7.55;2.22;;;23.30;99.90;;;;;;1859380;76;21200;-81
2022/05/20 08:22:22;;;;;;;10.60;3.08;;;23.40;99.90;;;;;;1895462;75;21606;-81
2022/05/20 08:25:09;;;;;;;7.67;2.15;;;23.70;99.90;;;;;;1896294;75;21141;-81
2022/05/20 08:28:03;;;;;;;5.53;1.90;;;23.80;99.90;;;;;;1884180;73;21113;-82
2022/05/20 08:30:55;;;;;;;3.62;2.00;;;23.90;99.90;;;;;;1885103;75;21422;-81
2022/05/20 08:34:02;;;;;;;10.23;1.90;;;23.90;99.90;;;;;;1896694;75;21168;-82
2022/05/20 08:36:54;;;;;;;6.87;2.42;;;24.20;99.90;;;;;;1896883;75;21263;-82
2022/05/20 08:39:46;;;;;;;5.45;2.27;;;24.40;99.90;;;;;;1898153;75;21695;-82
2022/05/20 08:42:39;;;;;;;6.92;2.40;;;24.60;99.90;;;;;;1906507;73;21105;-81
2022/05/20 08:45:33;;;;;;;3.90;1.82;;;24.70;99.90;;;;;;1914459;73;21237;-81
2022/05/20 08:48:25;;;;;;;10.85;2.20;;;24.80;99.90;;;;;;1899750;74;21107;-81
2022/05/20 08:51:16;;;;;;;6.72;2.33;;;25.10;99.90;;;;;;1911476;74;21649;-82
2022/05/20 08:54:10;;;;;;;7.05;2.05;;;25.30;99.90;;;;;;1828629;77;21179;-81
2022/05/20 08:57:19;;;;;;;8.20;1.67;;;25.70;99.90;;;;;;1894126;73;21184;-82
2022/05/20 09:00:14;;;;;;;5.25;2.00;;;26.00;99.90;;;;;;1897697;75;21098;-81
2022/05/20 09:03:08;;;;;;;5.83;1.60;;;26.40;99.90;;;;;;1894661;73;21663;-81
2022/05/20 09:06:07;;;;;;;3.95;1.85;;;26.70;99.90;;;;;;1895027;73;21116;-81
2022/05/20 09:09:17;;;;;;;8.03;1.95;;;26.90;99.90;;;;;;1903698;75;21149;-82
2022/05/20 09:12:11;;;;;;;7.20;2.05;;;27.30;99.90;;;;;;1892339;73;21136;-81
2022/05/20 09:18:21;;;;;;;5.60;1.80;;;27.70;99.90;;;;;;1899171;75;21209;-80
2022/05/20 09:21:28;;;;;;;5.25;1.72;;;27.90;99.90;;;;;;1892476;75;21059;-80
2022/05/20 09:24:22;;;;;;;7.58;1.70;;;28.10;99.90;;;;;;1895025;75;21831;-80
2022/05/20 09:27:17;;;;;;;2.30;1.27;;;28.20;99.90;;;;;;1887575;73;21496;-80
2022/05/20 09:30:13;;;;;;;3.20;1.45;;;28.40;99.90;;;;;;1900155;75;21155;-79
2022/05/20 09:33:12;;;;;;;5.47;1.60;;;28.70;99.90;;;;;;1892027;75;21141;-79
2022/05/20 09:36:06;;;;;;;2.22;1.10;;;28.90;97.10;;;;;;1902580;73;21090;-80
2022/05/20 09:39:08;;;;;;;3.50;1.40;;;29.20;95.90;;;;;;1881665;75;21231;-80
2022/05/20 09:42:07;;;;;;;3.15;1.45;;;29.50;93.30;;;;;;1893910;75;21182;-80
2022/05/20 09:45:04;;;;;;;3.62;1.42;;;29.70;92.10;;;;;;1896772;75;21559;-80
2022/05/20 09:47:57;;;;;;;2.67;1.53;;;29.90;89.10;;;;;;1887738;75;21106;-80
2022/05/20 09:51:05;;;;;;;3.72;1.40;;;30.10;88.20;;;;;;1889135;74;21546;-80
2022/05/20 09:54:06;;;;;;;2.58;1.15;;;30.10;83.90;;;;;;1889555;75;21114;-78
2022/05/20 09:57:07;;;;;;;3.92;1.50;;;30.30;82.10;;;;;;1892146;75;21096;-78
2022/05/20 10:00:04;;;;;;;1.90;1.47;;;30.30;81.00;;;;;;1902427;75;21472;-78
2022/05/20 10:03:01;;;;;;;4.80;1.52;;;30.60;78.90;;;;;;1868705;75;21255;-78
2022/05/20 10:05:57;;;;;;;4.35;1.75;;;30.60;78.70;;;;;;1886573;74;21066;-78
2022/05/20 10:08:52;;;;;;;5.78;1.50;;;30.70;77.60;;;;;;1892192;75;21083;-78
2022/05/20 10:11:48;;;;;;;3.47;1.85;;;30.90;76.50;;;;;;1888057;75;21551;-78
2022/05/20 10:14:47;;;;;;;2.45;1.55;;;31.10;74.30;;;;;;1906592;74;21594;-78
2022/05/20 10:17:46;;;;;;;4.20;1.40;;;31.20;74.40;;;;;;1881324;75;21517;-78
2022/05/20 10:20:42;;;;;;;3.47;1.42;;;31.30;72.80;;;;;;1894643;73;21060;-78
2022/05/20 10:23:38;;;;;;;4.12;1.32;;;31.40;71.60;;;;;;1915430;75;21160;-78
2022/05/20 10:26:35;;;;;;;4.95;1.32;;;31.50;70.60;;;;;;1902717;75;21106;-78
2022/05/20 10:32:44;;;;;;;3.02;1.50;;;31.80;68.30;;;;;;1835317;77;21063;-78
2022/05/20 10:38:31;;;;;;;3.08;1.40;;;31.90;67.30;;;;;;1971840;72;22173;-79
2022/05/20 10:41:50;;;;;;;3.98;1.62;;;32.10;66.20;;;;;;1917108;73;21106;-78
2022/05/20 10:51:51;;;;;;;5.33;1.60;;;32.40;63.50;;;;;;1924124;73;21162;-79
2022/05/20 10:55:28;;;;;;;3.50;1.45;;;32.50;62.60;;;;;;1918054;73;21098;-79
2022/05/20 10:58:58;;;;;;;4.78;1.60;;;32.40;61.50;;;;;;1917296;75;21124;-79
2022/05/20 11:02:18;;;;;;;4.83;1.35;;;32.50;61.60;;;;;;1917205;73;21096;-78
2022/05/20 11:05:22;;;;;;;3.15;1.50;;;32.70;60.90;;;;;;1916227;73;21089;-78
2022/05/20 11:11:09;;;;;;;5.42;1.30;;;32.80;59.30;;;;;;1942789;72;22272;-78
2022/05/20 11:14:43;;;;;;;3.30;1.40;;;32.80;59.00;;;;;;1894722;75;21139;-80
2022/05/20 11:21:21;;;;;;;4.75;1.50;;;32.80;58.70;;;;;;1936102;72;22526;-79
2022/05/20 11:24:57;;;;;;;3.10;1.32;;;32.80;58.80;;;;;;1898219;75;21099;-79
2022/05/20 11:28:21;;;;;;;3.47;1.42;;;32.90;59.10;;;;;;1897467;75;21035;-79
2022/05/20 11:31:21;;;;;;;7.62;1.92;;;33.00;59.20;;;;;;1893055;76;21099;-79
2022/05/20 11:37:28;;;;;;;5.00;1.50;;;33.00;58.00;;;;;;1951653;72;22226;-79
2022/05/20 11:40:50;;;;;;;4.83;1.62;;;33.00;57.50;;;;;;1884018;75;21050;-79
2022/05/20 11:44:29;;;;;;;5.87;1.70;;;33.10;56.90;;;;;;1886452;75;21135;-79
2022/05/20 11:47:41;;;;;;;3.70;1.30;;;33.00;56.60;;;;;;1887433;75;21169;-78
2022/05/20 11:51:08;;;;;;;5.20;1.40;;;33.00;56.90;;;;;;1890834;75;21137;-79
2022/05/20 11:54:04;;;;;;;4.35;1.22;;;33.00;56.40;;;;;;1888467;75;21062;-78
2022/05/20 11:56:59;;;;;;;4.25;1.50;;;33.00;56.60;;;;;;1884330;75;21071;-78
2022/05/20 11:59:55;;;;;;;5.22;1.47;;;33.10;56.40;;;;;;1904444;75;21119;-78
2022/05/20 12:02:52;;;;;;;9.33;1.92;;;33.10;56.40;;;;;;1904970;75;21145;-79
2022/05/20 12:05:47;;;;;;;4.70;1.30;;;33.10;56.60;;;;;;1886119;75;21661;-78
2022/05/20 12:08:55;;;;;;;2.52;1.25;;;33.20;56.50;;;;;;1888566;75;21121;-78
2022/05/20 12:11:53;;;;;;;5.97;1.60;;;33.20;56.70;;;;;;1911636;74;21055;-78
2022/05/20 12:15:12;;;;;;;3.58;1.47;;;33.30;56.70;;;;;;1905123;75;21113;-78
2022/05/20 12:24:56;;;;;;;7.28;1.72;;;33.40;56.50;;;;;;1891044;75;21138;-79
2022/05/20 12:27:51;;;;;;;4.72;1.65;;;33.40;56.10;;;;;;1886057;75;21121;-78
2022/05/20 12:30:45;;;;;;;3.30;1.40;;;33.50;55.70;;;;;;1905257;75;21093;-78
2022/05/20 12:33:56;;;;;;;5.03;1.47;;;33.60;55.90;;;;;;1905182;75;21110;-78
2022/05/20 12:36:47;;;;;;;2.62;1.40;;;33.60;56.80;;;;;;1898316;74;21699;-79
2022/05/20 12:39:50;;;;;;;4.42;1.30;;;33.50;55.50;;;;;;1912694;75;21084;-79
2022/05/20 12:42:45;;;;;;;3.83;1.20;;;33.40;56.00;;;;;;1894865;75;21141;-79
2022/05/20 12:45:41;;;;;;;4.45;1.40;;;33.30;56.20;;;;;;1908639;75;21083;-79
2022/05/20 12:48:34;;;;;;;2.40;1.22;;;33.20;56.30;;;;;;1903688;74;21098;-79
2022/05/20 12:51:30;;;;;;;2.87;1.50;;;33.20;56.40;;;;;;1894660;75;21103;-78
2022/05/20 12:54:26;;;;;;;4.55;1.67;;;33.30;56.00;;;;;;1904708;75;21048;-78
2022/05/20 12:57:19;;;;;;;4.20;1.32;;;33.50;56.30;;;;;;1891998;75;21104;-79
2022/05/20 13:00:15;;;;;;;3.17;1.50;;;33.60;55.40;;;;;;1892666;75;21122;-79
2022/05/20 13:03:11;;;;;;;3.90;1.40;;;33.80;55.20;;;;;;1908725;75;21145;-79
2022/05/20 13:06:05;;;;;;;3.62;1.42;;;34.00;55.40;;;;;;1908893;75;21114;-79
2022/05/20 13:09:01;;;;;;;5.80;1.40;;;34.00;55.20;;;;;;1910972;75;21075;-79
2022/05/20 13:14:34;;;;;;;3.87;1.52;;;34.00;54.90;;;;;;1958158;72;22234;-79
2022/05/20 13:17:44;;;;;;;5.17;1.50;;;34.30;55.20;;;;;;1895161;75;21042;-79
2022/05/20 13:20:57;;;;;;;7.50;1.50;;;34.50;54.90;;;;;;1895009;73;21098;-78
2022/05/20 13:23:54;;;;;;;2.65;1.30;;;34.60;54.70;;;;;;1895069;75;21205;-78
2022/05/20 13:27:12;;;;;;;5.65;2.00;;;34.60;54.40;;;;;;1913161;75;21155;-78
2022/05/20 13:30:13;;;;;;;4.47;1.57;;;34.80;54.20;;;;;;1890867;75;21047;-79
2022/05/20 13:33:07;;;;;;;2.80;1.40;;;34.90;54.00;;;;;;1917577;75;21436;-79
2022/05/20 13:36:03;;;;;;;2.30;1.50;;;34.70;53.80;;;;;;1884134;73;21069;-79
2022/05/20 13:38:59;;;;;;;4.22;1.55;;;34.80;53.40;;;;;;1884479;76;21172;-78
2022/05/20 13:41:52;;;;;;;2.33;1.25;;;35.00;53.60;;;;;;1906772;75;21071;-79
2022/05/20 13:44:47;;;;;;;3.25;1.37;;;35.00;53.40;;;;;;1885773;75;21110;-79
2022/05/20 13:50:52;;;;;;;2.02;1.22;;;35.50;52.90;;;;;;1884196;75;21043;-78
2022/05/20 13:53:44;;;;;;;3.15;1.60;;;35.90;53.30;;;;;;1898443;75;21082;-78
2022/05/20 13:56:38;;;;;;;3.98;1.40;;;36.10;52.70;;;;;;1895134;75;21600;-79
2022/05/20 13:59:37;;;;;;;4.72;1.50;;;36.10;51.90;;;;;;1895282;75;21121;-79
2022/05/20 14:02:38;;;;;;;2.75;1.12;;;36.60;52.30;;;;;;1895321;75;21122;-79
2022/05/20 14:05:36;;;;;;;5.53;1.50;;;36.90;51.70;;;;;;1900947;73;21087;-78
2022/05/20 14:08:32;;;;;;;3.92;1.17;;;37.10;51.20;;;;;;1884475;75;21116;-79
2022/05/20 14:14:08;;;;;;;2.35;1.42;;;37.80;50.60;;;;;;1958305;72;22154;-79
2022/05/20 14:17:19;;;;;;;5.15;1.42;;;37.50;50.00;;;;;;1895520;75;21059;-79
2022/05/20 14:20:31;;;;;;;2.47;1.30;;;36.60;49.90;;;;;;1892105;75;21179;-78
2022/05/20 14:23:25;;;;;;;1.52;1.32;;;36.10;51.50;;;;;;1878648;76;21088;-78
2022/05/20 14:26:38;;;;;;;4.22;1.37;;;36.20;51.10;;;;;;1904352;75;21083;-78
2022/05/20 14:29:33;;;;;;;2.52;1.60;;;36.20;51.10;;;;;;1902038;75;21237;-78
2022/05/20 14:32:26;;;;;;;4.03;1.97;;;35.80;51.10;;;;;;1896014;75;21044;-78
2022/05/20 14:35:21;;;;;;;2.75;1.50;;;35.50;51.70;;;;;;1886540;75;21109;-78
2022/05/20 14:38:17;;;;;;;3.22;1.60;;;35.30;51.70;;;;;;1881832;75;21048;-78
2022/05/20 14:41:11;;;;;;;3.20;1.42;;;35.20;52.20;;;;;;1903857;75;21486;-78
2022/05/20 14:44:07;;;;;;;5.22;1.40;;;35.40;52.10;;;;;;1899456;75;21139;-78
2022/05/20 14:47:16;;;;;;;4.85;1.70;;;35.50;52.30;;;;;;1884733;75;21127;-78
2022/05/20 14:50:18;;;;;;;2.27;1.40;;;35.40;52.50;;;;;;1914529;75;21135;-78
2022/05/20 14:53:14;;;;;;;4.22;1.30;;;35.50;52.50;;;;;;1911104;75;21055;-78
2022/05/20 14:56:06;;;;;;;2.10;1.50;;;35.60;52.20;;;;;;1906971;75;21566;-78
2022/05/20 14:59:01;;;;;;;3.70;1.52;;;35.70;51.70;;;;;;1903393;75;21048;-78
2022/05/20 15:01:52;;;;;;;3.87;1.50;;;35.80;51.70;;;;;;1898489;75;21092;-78
2022/05/20 15:04:45;;;;;;;4.40;1.82;;;35.50;51.60;;;;;;1889021;73;21220;-79
2022/05/20 15:07:38;;;;;;;5.42;2.25;;;35.00;54.80;;;;;;1884098;76;21099;-78
2022/05/20 15:10:32;;;;;;;5.03;1.92;;;34.70;55.90;;;;;;1903682;75;21074;-78
2022/05/20 15:13:26;;;;;;;10.38;1.92;;;35.10;56.30;;;;;;1906471;74;21078;-78
2022/05/20 15:16:18;;;;;;;5.80;2.20;;;34.70;56.80;;;;;;1911090;74;21117;-78
2022/05/20 15:19:11;;;;;;;7.05;2.47;;;34.10;58.20;;;;;;1904869;74;21165;-78
2022/05/20 15:22:03;;;;;;;5.42;2.55;;;33.30;59.20;;;;;;1922456;74;21191;-79
2022/05/20 15:24:55;;;;;;;9.80;2.70;;;32.50;60.10;;;;;;1917748;74;21149;-79
2022/05/20 15:27:48;;;;;;;6.58;2.62;;;32.10;61.60;;;;;;1912677;74;21102;-79
2022/05/20 15:30:40;;;;;;;10.38;3.20;;;32.00;62.10;;;;;;1910523;74;21269;-79
2022/05/20 15:36:42;;;;;;;4.47;2.02;;;31.60;63.10;;;;;;1899781;73;21110;-79
2022/05/20 15:39:37;;;;;;;7.00;2.35;;;31.80;62.70;;;;;;1875160;76;21109;-79
2022/05/20 15:42:30;;;;;;;6.15;2.37;;;32.00;62.90;;;;;;1897164;75;21192;-79
2022/05/20 15:45:24;;;;;;;5.42;2.50;;;31.80;63.30;;;;;;1877406;76;21046;-79
2022/05/20 15:48:16;;;;;;;4.15;1.87;;;31.80;63.40;;;;;;1921771;74;21115;-78
2022/05/20 15:51:08;;;;;;;4.15;2.12;;;31.80;62.90;;;;;;1902225;74;21179;-79
2022/05/20 15:54:00;;;;;;;6.20;2.22;;;31.80;63.10;;;;;;1914859;74;21050;-80
2022/05/20 15:56:53;;;;;;;5.35;2.10;;;31.60;63.80;;;;;;1912407;74;21106;-80
2022/05/20 15:59:47;;;;;;;6.65;2.15;;;32.00;64.20;;;;;;1902673;74;21122;-80
2022/05/20 16:02:40;;;;;;;4.42;2.42;;;32.00;64.40;;;;;;1902376;74;21051;-79
2022/05/20 16:05:32;;;;;;;5.10;1.80;;;31.90;65.10;;;;;;1915940;74;21089;-80
2022/05/20 16:08:25;;;;;;;4.90;2.05;;;31.70;65.10;;;;;;1839782;77;21513;-79
2022/05/20 16:11:20;;;;;;;6.55;2.62;;;31.60;65.10;;;;;;1932695;74;21205;-79
2022/05/20 16:14:11;;;;;;;11.10;2.25;;;31.40;65.00;;;;;;1910113;74;21506;-79
2022/05/20 16:17:04;;;;;;;6.25;2.52;;;31.30;64.00;;;;;;1910451;74;21676;-80
2022/05/20 16:20:17;;;;;;;4.50;1.90;;;31.40;63.20;;;;;;1915229;73;21091;-80
2022/05/20 16:23:31;;;;;;;3.50;2.05;;;31.50;63.60;;;;;;1917156;74;21507;-81
2022/05/20 16:29:40;;;;;;;4.60;2.33;;;31.90;62.10;;;;;;1917238;74;21544;-80
2022/05/20 16:32:32;;;;;;;4.37;1.67;;;31.70;61.40;;;;;;1912117;74;21121;-81
2022/05/20 16:35:26;;;;;;;3.22;1.62;;;31.50;61.70;;;;;;1910189;74;21054;-80
2022/05/20 16:38:38;;;;;;;3.92;2.05;;;31.50;61.80;;;;;;1910828;74;21245;-80